createdAt,value
2022-08-01T00:01:07.071Z,9.07
2022-08-01T00:03:35.165Z,9.70
2022-08-01T00:06:04.707Z,13.70
2022-08-01T00:08:34.198Z,13.53
2022-08-01T00:11:03.127Z,8.68
2022-08-01T00:13:30.693Z,10.35
2022-08-01T00:18:53.785Z,12.00
2022-08-01T00:21:21.416Z,11.02
2022-08-01T00:23:50.314Z,8.88
2022-08-01T00:26:17.857Z,14.20
2022-08-01T00:28:45.538Z,11.55
2022-08-01T00:31:17.774Z,13.57
2022-08-01T00:33:45.554Z,9.23
2022-08-01T00:38:55.797Z,13.27
2022-08-01T00:41:25.013Z,12.23
2022-08-01T00:43:53.737Z,13.30
2022-08-01T00:46:21.320Z,10.77
2022-08-01T00:48:50.150Z,10.90
2022-08-01T00:51:18.820Z,12.80
2022-08-01T00:53:51.915Z,10.50
2022-08-01T01:00:52.396Z,12.57
2022-08-01T01:06:16.203Z,11.90
2022-08-01T01:08:56.069Z,11.20
2022-08-01T01:11:36.974Z,10.75
2022-08-01T01:14:17.905Z,18.30
2022-08-01T01:19:58.575Z,12.20
2022-08-01T01:22:45.063Z,9.93
2022-08-01T01:25:25.487Z,10.88
2022-08-01T01:28:07.326Z,10.38
2022-08-01T01:30:38.335Z,8.57
2022-08-01T01:33:10.840Z,13.23
2022-08-01T01:40:47.710Z,11.55
2022-08-01T01:43:18.114Z,14.57
2022-08-01T01:45:48.269Z,9.40
2022-08-01T01:48:19.994Z,12.88
2022-08-01T01:50:49.988Z,8.57
2022-08-01T01:53:21.956Z,15.02
2022-08-01T01:55:56.765Z,11.43
2022-08-01T02:03:58.145Z,12.20
2022-08-01T02:06:27.982Z,12.00
2022-08-01T02:08:56.828Z,11.88
2022-08-01T02:11:25.304Z,12.68
2022-08-01T02:14:00.077Z,12.82
2022-08-01T02:16:37.386Z,18.80
2022-08-01T02:19:05.590Z,12.73
2022-08-01T02:27:45.107Z,12.60
2022-08-01T02:30:16.076Z,10.52
2022-08-01T02:32:48.536Z,10.60
2022-08-01T02:35:25.449Z,13.13
2022-08-01T02:37:55.183Z,12.00
2022-08-01T02:40:25.122Z,11.32
2022-08-01T02:45:38.410Z,15.48
2022-08-01T02:50:39.775Z,11.35
2022-08-01T02:53:11.411Z,12.80
2022-08-01T02:55:45.929Z,15.10
2022-08-01T02:58:20.019Z,10.98
2022-08-01T03:00:49.271Z,14.40
2022-08-01T03:06:00.609Z,11.50
2022-08-01T03:08:30.314Z,10.65
2022-08-01T03:11:00.468Z,11.45
2022-08-01T03:13:29.703Z,13.30
2022-08-01T03:15:58.464Z,9.80
2022-08-01T03:18:28.340Z,9.98
2022-08-01T03:23:41.547Z,10.35
2022-08-01T03:26:12.178Z,9.70
2022-08-01T03:28:45.465Z,8.55
2022-08-01T03:31:16.286Z,9.70
2022-08-01T03:33:45.220Z,11.63
2022-08-01T03:36:17.456Z,12.50
2022-08-01T03:38:48.315Z,9.25
2022-08-01T03:44:31.054Z,12.05
2022-08-01T03:47:05.294Z,15.43
2022-08-01T03:49:44.213Z,9.77
2022-08-01T03:52:15.238Z,17.52
2022-08-01T03:54:47.714Z,12.90
2022-08-01T03:57:20.213Z,12.48
2022-08-01T04:00:09.616Z,14.07
2022-08-01T04:07:56.655Z,15.85
2022-08-01T04:10:26.461Z,13.93
2022-08-01T04:12:55.998Z,12.98
2022-08-01T04:15:25.322Z,13.57
2022-08-01T04:17:57.895Z,10.63
2022-08-01T04:20:26.006Z,11.30
2022-08-01T04:22:55.270Z,10.95
2022-08-01T04:28:31.488Z,11.43
2022-08-01T04:31:02.212Z,17.02
2022-08-01T04:33:34.384Z,12.32
2022-08-01T04:36:05.437Z,12.30
2022-08-01T04:38:37.550Z,14.40
2022-08-01T04:41:09.876Z,14.63
2022-08-01T04:43:38.543Z,13.27
2022-08-01T04:51:26.172Z,11.18
2022-08-01T04:53:55.937Z,12.80
2022-08-01T04:56:25.099Z,11.93
2022-08-01T04:59:19.641Z,12.57
2022-08-01T05:01:51.873Z,13.45
2022-08-01T05:04:21.524Z,12.18
2022-08-01T05:09:39.876Z,11.52
2022-08-01T05:12:08.503Z,13.05
2022-08-01T05:14:36.817Z,13.20
2022-08-01T05:17:07.193Z,12.52
2022-08-01T05:22:10.119Z,11.95
2022-08-01T05:24:40.284Z,16.17
2022-08-01T05:29:44.776Z,12.82
2022-08-01T05:32:14.365Z,11.02
2022-08-01T05:34:41.792Z,8.52
2022-08-01T05:37:11.622Z,8.73
2022-08-01T05:39:39.110Z,9.80
2022-08-01T05:42:07.458Z,12.77
2022-08-01T05:44:36.499Z,12.50
2022-08-01T05:51:27.109Z,18.23
2022-08-01T05:53:56.647Z,10.30
2022-08-01T05:56:28.362Z,10.77
2022-08-01T05:59:00.342Z,12.60
2022-08-01T06:01:27.901Z,12.77
2022-08-01T06:03:58.226Z,10.68
2022-08-01T06:06:26.218Z,10.00
2022-08-01T06:08:56.197Z,13.15
2022-08-01T06:16:36.396Z,18.80
2022-08-01T06:19:05.601Z,12.68
2022-08-01T06:21:34.904Z,12.25
2022-08-01T06:24:02.502Z,16.23
2022-08-01T06:26:32.177Z,11.20
2022-08-01T06:29:01.698Z,11.55
2022-08-01T06:31:33.503Z,12.70
2022-08-01T06:36:40.001Z,10.80
2022-08-01T06:39:07.607Z,15.48
2022-08-01T06:41:36.127Z,11.43
2022-08-01T06:44:06.668Z,13.32
2022-08-01T06:46:36.241Z,7.85
2022-08-01T06:49:05.812Z,9.32
2022-08-01T06:51:35.085Z,9.23
2022-08-01T06:54:04.791Z,7.67
2022-08-01T07:01:39.307Z,7.10
2022-08-01T07:04:07.920Z,9.70
2022-08-01T07:06:36.359Z,8.32
2022-08-01T07:09:10.834Z,4.53
2022-08-01T07:11:41.232Z,9.18
2022-08-01T07:14:08.762Z,6.05
2022-08-01T07:16:39.281Z,9.10
2022-08-01T07:19:07.425Z,8.10
2022-08-01T07:26:52.420Z,7.72
2022-08-01T07:29:25.897Z,8.52
2022-08-01T07:31:56.981Z,7.88
2022-08-01T07:34:26.713Z,11.30
2022-08-01T07:36:56.190Z,7.43
2022-08-01T07:39:25.522Z,11.75
2022-08-01T07:44:38.467Z,9.43
2022-08-01T07:47:06.843Z,12.05
2022-08-01T07:49:39.996Z,10.57
2022-08-01T07:52:09.021Z,9.45
2022-08-01T07:54:36.833Z,11.30
2022-08-01T07:57:06.012Z,10.98
2022-08-01T07:59:35.451Z,5.93
2022-08-01T08:07:36.772Z,11.88
2022-08-01T08:10:06.542Z,9.80
2022-08-01T08:12:36.068Z,9.45
2022-08-01T08:15:06.544Z,11.25
2022-08-01T08:17:36.576Z,7.35
2022-08-01T08:20:09.154Z,13.05
2022-08-01T08:22:37.557Z,7.10
2022-08-01T08:27:48.085Z,10.88
2022-08-01T08:30:16.647Z,8.50
2022-08-01T08:32:45.885Z,10.95
2022-08-01T08:35:23.153Z,8.70
2022-08-01T08:37:51.914Z,7.72
2022-08-01T08:40:30.336Z,11.25
2022-08-01T08:43:00.888Z,9.60
2022-08-01T08:50:37.416Z,8.65
2022-08-01T08:53:06.805Z,11.30
2022-08-01T08:55:56.185Z,16.33
2022-08-01T08:58:31.436Z,13.82
2022-08-01T09:01:00.187Z,10.07
2022-08-01T09:03:27.630Z,12.98
2022-08-01T09:05:58.966Z,8.63
2022-08-01T09:16:20.233Z,13.32
2022-08-01T09:18:53.499Z,16.95
2022-08-01T09:21:25.253Z,13.65
2022-08-01T09:23:57.368Z,14.38
2022-08-01T09:26:35.572Z,12.98
2022-08-01T09:29:07.765Z,12.27
2022-08-01T09:31:47.671Z,13.57
2022-08-01T09:39:22.551Z,15.93
2022-08-01T09:41:56.502Z,14.13
2022-08-01T09:44:44.102Z,11.88
2022-08-01T09:47:15.887Z,13.45
2022-08-01T09:49:51.984Z,14.00
2022-08-01T09:52:27.847Z,14.02
2022-08-01T09:55:00.360Z,17.58
2022-08-01T10:01:05.843Z,16.80
2022-08-01T10:03:35.882Z,17.15
2022-08-01T10:06:21.456Z,17.80
2022-08-01T10:08:52.470Z,12.80
2022-08-01T10:11:22.254Z,16.15
2022-08-01T10:14:05.242Z,15.20
2022-08-01T10:16:36.751Z,16.52
2022-08-01T10:24:18.816Z,14.68
2022-08-01T10:26:54.108Z,19.42
2022-08-01T10:29:58.995Z,13.63
2022-08-01T10:32:12.736Z,13.23
2022-08-01T10:34:44.996Z,15.15
2022-08-01T10:37:16.854Z,14.75
2022-08-01T10:39:46.979Z,13.02
2022-08-01T10:50:26.350Z,15.95
2022-08-01T10:53:23.190Z,15.10
2022-08-01T10:55:59.339Z,22.40
2022-08-01T10:58:42.735Z,16.75
2022-08-01T11:01:32.987Z,16.27
2022-08-01T11:04:02.677Z,14.32
2022-08-01T11:11:59.126Z,11.82
2022-08-01T11:14:46.661Z,15.15
2022-08-01T11:17:42.010Z,16.58
2022-08-01T11:20:17.448Z,16.67
2022-08-01T11:23:02.431Z,17.38
2022-08-01T11:33:10.619Z,21.23
2022-08-01T11:35:38.698Z,19.75
2022-08-01T11:38:29.035Z,16.15
2022-08-01T11:44:06.345Z,13.20
2022-08-01T11:46:49.797Z,24.70
2022-08-01T11:49:30.939Z,20.40
2022-08-01T11:57:36.237Z,22.75
2022-08-01T12:00:17.735Z,24.15
2022-08-01T12:02:59.098Z,21.73
2022-08-01T12:05:28.585Z,19.42
2022-08-01T12:07:59.288Z,23.75
2022-08-01T12:10:33.054Z,22.98
2022-08-01T12:13:07.626Z,22.23
2022-08-01T12:20:56.533Z,19.52
2022-08-01T12:23:26.484Z,23.17
2022-08-01T12:25:55.767Z,22.55
2022-08-01T12:28:25.472Z,18.85
2022-08-01T12:30:53.657Z,26.75
2022-08-01T12:33:22.717Z,19.80
2022-08-01T12:35:55.524Z,21.35
2022-08-01T12:43:36.287Z,21.52
2022-08-01T12:46:06.258Z,19.83
2022-08-01T12:48:35.474Z,28.45
2022-08-01T12:51:06.852Z,22.98
2022-08-01T12:53:40.681Z,19.38
2022-08-01T12:56:11.425Z,20.73
2022-08-01T12:58:42.107Z,19.83
2022-08-01T13:06:30.013Z,16.15
2022-08-01T13:09:07.604Z,19.05
2022-08-01T13:11:37.357Z,20.33
2022-08-01T13:14:06.493Z,14.60
2022-08-01T13:16:56.895Z,21.05
2022-08-01T13:19:45.634Z,18.85
2022-08-01T13:27:26.344Z,18.10
2022-08-01T13:29:56.118Z,20.48
2022-08-01T13:32:30.015Z,21.30
2022-08-01T13:35:09.246Z,23.65
2022-08-01T13:37:39.261Z,18.17
2022-08-01T13:40:09.676Z,17.95
2022-08-01T13:42:37.836Z,19.45
2022-08-01T13:50:27.399Z,21.88
2022-08-01T13:52:59.756Z,22.60
2022-08-01T13:55:32.355Z,21.42
2022-08-01T13:58:03.901Z,16.23
2022-08-01T14:03:00.083Z,17.85
2022-08-01T14:05:28.886Z,22.13
2022-08-01T14:13:07.595Z,21.05
2022-08-01T14:15:39.910Z,19.50
2022-08-01T14:18:11.041Z,20.38
2022-08-01T14:20:39.813Z,21.20
2022-08-01T14:23:08.792Z,20.83
2022-08-01T14:25:59.136Z,22.60
2022-08-01T14:28:30.950Z,20.58
2022-08-01T14:30:59.620Z,22.47
2022-08-01T14:38:35.172Z,17.88
2022-08-01T14:41:06.226Z,16.77
2022-08-01T14:43:35.334Z,21.13
2022-08-01T14:46:06.224Z,19.47
2022-08-01T14:48:33.897Z,20.10
2022-08-01T14:51:03.838Z,17.63
2022-08-01T15:01:18.909Z,19.13
2022-08-01T15:03:48.766Z,16.55
2022-08-01T15:06:17.832Z,18.17
2022-08-01T15:08:47.085Z,17.88
2022-08-01T15:11:16.462Z,14.00
2022-08-01T15:13:45.898Z,15.68
2022-08-01T15:16:13.321Z,20.25
2022-08-01T15:21:41.345Z,18.02
2022-08-01T15:24:10.330Z,21.63
2022-08-01T15:26:38.153Z,22.63
2022-08-01T15:29:08.387Z,18.90
2022-08-01T15:31:39.048Z,17.75
2022-08-01T15:34:07.021Z,18.90
2022-08-01T15:36:37.274Z,18.35
2022-08-01T15:42:03.333Z,15.77
2022-08-01T15:44:37.105Z,18.08
2022-08-01T15:47:06.961Z,16.27
2022-08-01T15:52:09.574Z,25.70
2022-08-01T15:54:49.166Z,19.27
2022-08-01T15:57:17.803Z,17.40
2022-08-01T16:04:57.246Z,19.52
2022-08-01T16:07:26.756Z,22.35
2022-08-01T16:09:56.092Z,18.27
2022-08-01T16:12:23.580Z,16.33
2022-08-01T16:14:54.050Z,23.67
2022-08-01T16:17:23.171Z,22.88
2022-08-01T16:19:51.599Z,15.32
2022-08-01T16:30:22.058Z,15.30
2022-08-01T16:32:52.252Z,19.50
2022-08-01T16:35:24.476Z,19.05
2022-08-01T16:37:57.136Z,19.05
2022-08-01T16:40:26.509Z,19.95
2022-08-01T16:42:58.506Z,21.20
2022-08-01T16:45:27.874Z,18.17
2022-08-01T16:50:52.929Z,16.83
2022-08-01T16:53:22.474Z,18.23
2022-08-01T16:55:51.005Z,15.60
2022-08-01T16:58:27.624Z,17.95
2022-08-01T17:00:57.835Z,22.58
2022-08-01T17:03:52.966Z,23.47
2022-08-01T17:06:22.777Z,18.30
2022-08-01T17:13:50.706Z,13.73
2022-08-01T17:16:18.323Z,19.27
2022-08-01T17:18:47.654Z,19.40
2022-08-01T17:21:18.103Z,16.75
2022-08-01T17:23:47.519Z,14.65
2022-08-01T17:26:16.281Z,17.10
2022-08-01T17:28:43.872Z,19.63
2022-08-01T17:39:00.130Z,20.40
2022-08-01T17:41:27.946Z,16.83
2022-08-01T17:43:57.703Z,14.73
2022-08-01T17:48:56.478Z,15.15
2022-08-01T17:53:57.307Z,19.52
2022-08-01T18:01:35.548Z,18.70
2022-08-01T18:04:03.237Z,15.68
2022-08-01T18:06:30.715Z,18.30
2022-08-01T18:09:04.308Z,16.35
2022-08-01T18:11:37.809Z,20.30
2022-08-01T18:14:09.864Z,14.38
2022-08-01T18:16:39.626Z,19.23
2022-08-01T18:21:50.760Z,19.10
2022-08-01T18:24:22.068Z,15.27
2022-08-01T18:26:51.421Z,12.63
2022-08-01T18:29:44.483Z,11.77
2022-08-01T18:32:07.613Z,14.52
2022-08-01T18:34:36.658Z,14.60
2022-08-01T18:37:04.416Z,19.43
2022-08-01T18:44:38.266Z,20.58
2022-08-01T18:47:07.882Z,16.00
2022-08-01T18:49:40.345Z,18.05
2022-08-01T18:52:08.164Z,19.67
2022-08-01T18:54:38.723Z,16.02
2022-08-01T18:57:07.879Z,16.27
2022-08-01T18:59:37.106Z,15.90
2022-08-01T19:04:49.482Z,17.92
2022-08-01T19:07:39.450Z,14.85
2022-08-01T19:10:07.994Z,19.53
2022-08-01T19:12:37.363Z,13.23
2022-08-01T19:15:07.216Z,17.98
2022-08-01T19:20:06.509Z,21.52
2022-08-01T19:27:17.890Z,16.73
2022-08-01T19:32:19.163Z,18.67
2022-08-01T19:34:52.075Z,18.90
2022-08-01T19:37:22.931Z,19.70
2022-08-01T19:39:54.093Z,16.38
2022-08-01T19:42:30.121Z,20.05
2022-08-01T19:50:08.637Z,17.85
2022-08-01T19:52:42.079Z,17.00
2022-08-01T19:55:10.285Z,19.73
2022-08-01T19:57:45.712Z,20.63
2022-08-01T20:00:27.691Z,21.40
2022-08-01T20:02:58.861Z,17.30
2022-08-01T20:05:28.416Z,19.20
2022-08-01T20:15:49.320Z,16.30
2022-08-01T20:18:18.715Z,18.35
2022-08-01T20:20:49.892Z,28.00
2022-08-01T20:23:20.119Z,20.98
2022-08-01T20:25:51.210Z,16.67
2022-08-01T20:28:27.308Z,17.25
2022-08-01T20:31:05.470Z,17.75
2022-08-01T20:36:26.882Z,19.05
2022-08-01T20:38:57.461Z,18.45
2022-08-01T20:41:28.507Z,25.55
2022-08-01T20:43:59.685Z,15.70
2022-08-01T20:46:29.641Z,22.92
2022-08-01T20:48:58.825Z,19.88
2022-08-01T20:51:29.026Z,14.82
2022-08-01T20:56:59.031Z,15.82
2022-08-01T20:59:55.893Z,18.27
2022-08-01T21:02:49.052Z,17.65
2022-08-01T21:05:29.292Z,25.30
2022-08-01T21:08:22.698Z,20.13
2022-08-01T21:11:02.262Z,18.77
2022-08-01T21:13:41.096Z,19.70
2022-08-01T21:21:26.791Z,16.80
2022-08-01T21:24:15.443Z,13.85
2022-08-01T21:26:47.614Z,17.50
2022-08-01T21:29:17.781Z,16.75
2022-08-01T21:32:08.261Z,18.73
2022-08-01T21:34:39.317Z,12.75
2022-08-01T21:37:10.196Z,17.30
2022-08-01T21:44:48.667Z,16.45
2022-08-01T21:47:18.641Z,16.65
2022-08-01T21:52:22.591Z,17.77
2022-08-01T21:55:17.479Z,15.55
2022-08-01T21:58:00.585Z,17.48
2022-08-01T22:00:29.531Z,17.30
2022-08-01T22:11:32.150Z,19.95
2022-08-01T22:14:05.173Z,14.52
2022-08-01T22:16:40.739Z,17.42
2022-08-01T22:19:37.592Z,14.82
2022-08-01T22:22:02.438Z,19.05
2022-08-01T22:24:40.581Z,13.18
2022-08-01T22:27:23.425Z,16.45
2022-08-01T22:35:19.045Z,14.88
2022-08-01T22:37:48.409Z,20.08
2022-08-01T22:40:24.778Z,15.40
2022-08-01T22:43:00.020Z,12.68
2022-08-01T22:46:00.814Z,16.05
2022-08-01T22:48:52.446Z,13.75
2022-08-01T22:51:55.178Z,22.83
2022-08-01T22:59:43.405Z,15.98
2022-08-01T23:02:17.851Z,15.77
2022-08-01T23:04:49.223Z,16.40
2022-08-01T23:07:24.313Z,15.05
2022-08-01T23:09:57.901Z,13.32
2022-08-01T23:12:28.363Z,15.85
2022-08-01T23:14:59.147Z,17.92
2022-08-01T23:21:19.948Z,21.70
2022-08-01T23:23:49.586Z,18.40
2022-08-01T23:26:19.414Z,20.75
2022-08-01T23:28:49.931Z,14.50
2022-08-01T23:31:18.970Z,16.92
2022-08-01T23:33:48.162Z,18.30
2022-08-01T23:38:59.167Z,17.75
2022-08-01T23:41:28.469Z,21.20
2022-08-01T23:43:57.721Z,10.48
2022-08-01T23:46:26.825Z,16.70
2022-08-01T23:48:54.340Z,15.50
2022-08-01T23:51:24.976Z,14.02
2022-08-01T23:53:54.105Z,14.85
2022-08-01T23:59:02.114Z,14.38
